sensor_id;sensor_type;location;lat;lon;timestamp;P1;durP1;ratioP1;P2;durP2;ratioP2
70929;SDS011;58588;48.102;19.682;2024-02-23T00:02:09;4.53;;;1.00;;
70929;SDS011;58588;48.102;19.682;2024-02-23T00:05:13;4.53;;;1.20;;
70929;SDS011;58588;48.102;19.682;2024-02-23T00:08:15;3.57;;;0.70;;
70929;SDS011;58588;48.102;19.682;2024-02-23T00:11:17;4.60;;;1.00;;
70929;SDS011;58588;48.102;19.682;2024-02-23T00:14:18;4.35;;;0.93;;
70929;SDS011;58588;48.102;19.682;2024-02-23T00:17:22;5.45;;;0.90;;
70929;SDS011;58588;48.102;19.682;2024-02-23T00:20:25;4.47;;;1.10;;
70929;SDS011;58588;48.102;19.682;2024-02-23T00:23:27;3.63;;;0.80;;
70929;SDS011;58588;48.102;19.682;2024-02-23T00:26:29;4.95;;;0.90;;
70929;SDS011;58588;48.102;19.682;2024-02-23T00:29:31;4.90;;;1.17;;
70929;SDS011;58588;48.102;19.682;2024-02-23T00:32:33;4.63;;;1.05;;
70929;SDS011;58588;48.102;19.682;2024-02-23T00:35:37;5.85;;;1.00;;
70929;SDS011;58588;48.102;19.682;2024-02-23T00:38:38;5.17;;;1.30;;
70929;SDS011;58588;48.102;19.682;2024-02-23T00:41:40;5.30;;;1.20;;
70929;SDS011;58588;48.102;19.682;2024-02-23T00:44:42;4.35;;;0.93;;
70929;SDS011;58588;48.102;19.682;2024-02-23T00:47:44;4.47;;;1.10;;
70929;SDS011;58588;48.102;19.682;2024-02-23T00:50:48;5.13;;;0.90;;
70929;SDS011;58588;48.102;19.682;2024-02-23T00:53:50;5.03;;;1.23;;
70929;SDS011;58588;48.102;19.682;2024-02-23T00:56:52;4.80;;;1.10;;
70929;SDS011;58588;48.102;19.682;2024-02-23T00:59:54;6.68;;;1.27;;
70929;SDS011;58588;48.102;19.682;2024-02-23T01:02:56;5.07;;;1.20;;
70929;SDS011;58588;48.102;19.682;2024-02-23T01:06:01;4.93;;;1.20;;
70929;SDS011;58588;48.102;19.682;2024-02-23T01:09:03;4.93;;;1.30;;
70929;SDS011;58588;48.102;19.682;2024-02-23T01:12:05;4.45;;;1.10;;
70929;SDS011;58588;48.102;19.682;2024-02-23T01:15:07;5.35;;;1.15;;
70929;SDS011;58588;48.102;19.682;2024-02-23T01:18:10;4.20;;;1.05;;
70929;SDS011;58588;48.102;19.682;2024-02-23T01:21:13;4.28;;;1.13;;
70929;SDS011;58588;48.102;19.682;2024-02-23T01:24:15;4.57;;;1.00;;
70929;SDS011;58588;48.102;19.682;2024-02-23T01:27:17;4.75;;;1.00;;
70929;SDS011;58588;48.102;19.682;2024-02-23T01:30:19;5.38;;;1.25;;
70929;SDS011;58588;48.102;19.682;2024-02-23T01:33:21;5.28;;;1.40;;
70929;SDS011;58588;48.102;19.682;2024-02-23T01:36:24;5.72;;;1.30;;
70929;SDS011;58588;48.102;19.682;2024-02-23T01:39:26;5.03;;;1.20;;
70929;SDS011;58588;48.102;19.682;2024-02-23T01:42:28;4.90;;;1.30;;
70929;SDS011;58588;48.102;19.682;2024-02-23T01:45:30;5.55;;;1.17;;
70929;SDS011;58588;48.102;19.682;2024-02-23T01:48:32;4.47;;;1.08;;
70929;SDS011;58588;48.102;19.682;2024-02-23T01:51:35;5.35;;;1.30;;
70929;SDS011;58588;48.102;19.682;2024-02-23T01:54:37;5.33;;;1.37;;
70929;SDS011;58588;48.102;19.682;2024-02-23T01:57:40;5.40;;;1.45;;
70929;SDS011;58588;48.102;19.682;2024-02-23T02:00:42;5.38;;;1.38;;
70929;SDS011;58588;48.102;19.682;2024-02-23T02:03:44;4.93;;;1.30;;
70929;SDS011;58588;48.102;19.682;2024-02-23T02:06:47;5.55;;;1.45;;
70929;SDS011;58588;48.102;19.682;2024-02-23T02:09:50;5.07;;;1.30;;
70929;SDS011;58588;48.102;19.682;2024-02-23T02:12:51;5.25;;;1.50;;
70929;SDS011;58588;48.102;19.682;2024-02-23T02:15:54;7.03;;;1.92;;
70929;SDS011;58588;48.102;19.682;2024-02-23T02:18:56;6.35;;;1.60;;
70929;SDS011;58588;48.102;19.682;2024-02-23T02:21:59;5.88;;;1.60;;
70929;SDS011;58588;48.102;19.682;2024-02-23T02:25:02;5.37;;;1.50;;
70929;SDS011;58588;48.102;19.682;2024-02-23T02:28:06;7.47;;;1.98;;
70929;SDS011;58588;48.102;19.682;2024-02-23T02:31:09;6.25;;;1.70;;
70929;SDS011;58588;48.102;19.682;2024-02-23T02:34:13;6.13;;;1.50;;
70929;SDS011;58588;48.102;19.682;2024-02-23T02:37:16;6.05;;;1.50;;
70929;SDS011;58588;48.102;19.682;2024-02-23T02:40:19;7.20;;;1.70;;
70929;SDS011;58588;48.102;19.682;2024-02-23T02:43:21;6.25;;;1.80;;
70929;SDS011;58588;48.102;19.682;2024-02-23T02:46:23;5.20;;;1.58;;
70929;SDS011;58588;48.102;19.682;2024-02-23T02:49:25;5.35;;;1.55;;
70929;SDS011;58588;48.102;19.682;2024-02-23T02:52:28;6.10;;;1.77;;
70929;SDS011;58588;48.102;19.682;2024-02-23T02:55:30;6.53;;;1.43;;
70929;SDS011;58588;48.102;19.682;2024-02-23T02:58:32;6.57;;;1.80;;
70929;SDS011;58588;48.102;19.682;2024-02-23T03:01:33;6.68;;;1.80;;
70929;SDS011;58588;48.102;19.682;2024-02-23T03:04:35;6.35;;;1.65;;
70929;SDS011;58588;48.102;19.682;2024-02-23T03:07:39;8.20;;;2.30;;
70929;SDS011;58588;48.102;19.682;2024-02-23T03:10:41;6.50;;;2.00;;
70929;SDS011;58588;48.102;19.682;2024-02-23T03:13:43;6.93;;;2.20;;
70929;SDS011;58588;48.102;19.682;2024-02-23T03:16:44;6.28;;;2.10;;
70929;SDS011;58588;48.102;19.682;2024-02-23T03:19:47;5.80;;;2.00;;
70929;SDS011;58588;48.102;19.682;2024-02-23T03:22:51;8.35;;;1.80;;
70929;SDS011;58588;48.102;19.682;2024-02-23T03:25:53;6.80;;;1.80;;
70929;SDS011;58588;48.102;19.682;2024-02-23T03:28:55;6.03;;;2.03;;
70929;SDS011;58588;48.102;19.682;2024-02-23T03:31:57;7.22;;;2.17;;
70929;SDS011;58588;48.102;19.682;2024-02-23T03:34:59;6.43;;;1.90;;
70929;SDS011;58588;48.102;19.682;2024-02-23T03:38:02;6.97;;;2.17;;
70929;SDS011;58588;48.102;19.682;2024-02-23T03:41:05;6.70;;;2.10;;
70929;SDS011;58588;48.102;19.682;2024-02-23T03:44:07;5.97;;;1.80;;
70929;SDS011;58588;48.102;19.682;2024-02-23T03:47:09;8.23;;;2.47;;
70929;SDS011;58588;48.102;19.682;2024-02-23T03:50:12;6.07;;;2.10;;
70929;SDS011;58588;48.102;19.682;2024-02-23T03:53:15;7.63;;;2.22;;
70929;SDS011;58588;48.102;19.682;2024-02-23T03:56:17;9.30;;;3.20;;
70929;SDS011;58588;48.102;19.682;2024-02-23T03:59:19;6.47;;;2.70;;
70929;SDS011;58588;48.102;19.682;2024-02-23T04:02:21;6.75;;;2.20;;
70929;SDS011;58588;48.102;19.682;2024-02-23T04:05:23;6.32;;;2.30;;
70929;SDS011;58588;48.102;19.682;2024-02-23T04:12:23;6.60;;;2.03;;
70929;SDS011;58588;48.102;19.682;2024-02-23T04:15:25;6.35;;;2.13;;
70929;SDS011;58588;48.102;19.682;2024-02-23T04:18:27;7.28;;;2.13;;
70929;SDS011;58588;48.102;19.682;2024-02-23T04:21:29;8.70;;;2.70;;
70929;SDS011;58588;48.102;19.682;2024-02-23T04:24:31;6.55;;;2.35;;
70929;SDS011;58588;48.102;19.682;2024-02-23T04:27:34;7.50;;;2.33;;
70929;SDS011;58588;48.102;19.682;2024-02-23T04:30:36;9.25;;;4.03;;
70929;SDS011;58588;48.102;19.682;2024-02-23T04:33:38;9.15;;;4.00;;
70929;SDS011;58588;48.102;19.682;2024-02-23T04:36:40;6.55;;;2.45;;
70929;SDS011;58588;48.102;19.682;2024-02-23T04:39:43;7.55;;;2.88;;
70929;SDS011;58588;48.102;19.682;2024-02-23T04:42:46;7.43;;;3.00;;
70929;SDS011;58588;48.102;19.682;2024-02-23T04:45:48;8.55;;;3.00;;
70929;SDS011;58588;48.102;19.682;2024-02-23T04:48:50;10.77;;;4.05;;
70929;SDS011;58588;48.102;19.682;2024-02-23T04:51:52;8.52;;;3.72;;
70929;SDS011;58588;48.102;19.682;2024-02-23T04:54:54;9.68;;;3.00;;
70929;SDS011;58588;48.102;19.682;2024-02-23T04:57:57;8.13;;;2.80;;
70929;SDS011;58588;48.102;19.682;2024-02-23T05:00:59;8.85;;;3.00;;
70929;SDS011;58588;48.102;19.682;2024-02-23T05:04:03;6.95;;;2.65;;
70929;SDS011;58588;48.102;19.682;2024-02-23T05:07:05;6.93;;;2.72;;
70929;SDS011;58588;48.102;19.682;2024-02-23T05:10:07;7.80;;;3.05;;
70929;SDS011;58588;48.102;19.682;2024-02-23T05:13:11;8.20;;;3.00;;
70929;SDS011;58588;48.102;19.682;2024-02-23T05:16:13;9.38;;;2.80;;
70929;SDS011;58588;48.102;19.682;2024-02-23T05:19:15;7.47;;;2.60;;
70929;SDS011;58588;48.102;19.682;2024-02-23T05:22:18;8.30;;;3.00;;
70929;SDS011;58588;48.102;19.682;2024-02-23T05:25:20;8.25;;;3.40;;
70929;SDS011;58588;48.102;19.682;2024-02-23T05:28:23;8.03;;;3.07;;
70929;SDS011;58588;48.102;19.682;2024-02-23T05:31:43;10.10;;;2.85;;
70929;SDS011;58588;48.102;19.682;2024-02-23T05:34:46;6.93;;;2.65;;
70929;SDS011;58588;48.102;19.682;2024-02-23T05:37:51;7.32;;;2.70;;
70929;SDS011;58588;48.102;19.682;2024-02-23T05:40:53;10.45;;;3.08;;
70929;SDS011;58588;48.102;19.682;2024-02-23T05:43:56;8.13;;;3.00;;
70929;SDS011;58588;48.102;19.682;2024-02-23T05:46:58;6.63;;;2.40;;
70929;SDS011;58588;48.102;19.682;2024-02-23T05:50:00;8.05;;;2.90;;
70929;SDS011;58588;48.102;19.682;2024-02-23T05:53:02;7.60;;;2.80;;
70929;SDS011;58588;48.102;19.682;2024-02-23T05:56:04;7.50;;;2.70;;
70929;SDS011;58588;48.102;19.682;2024-02-23T05:59:08;6.83;;;2.83;;
70929;SDS011;58588;48.102;19.682;2024-02-23T06:02:10;7.78;;;3.03;;
70929;SDS011;58588;48.102;19.682;2024-02-23T06:05:12;7.25;;;2.75;;
70929;SDS011;58588;48.102;19.682;2024-02-23T06:08:14;8.82;;;3.00;;
70929;SDS011;58588;48.102;19.682;2024-02-23T06:11:16;8.27;;;2.70;;
70929;SDS011;58588;48.102;19.682;2024-02-23T06:14:19;7.87;;;3.13;;
70929;SDS011;58588;48.102;19.682;2024-02-23T06:17:23;7.10;;;2.90;;
70929;SDS011;58588;48.102;19.682;2024-02-23T06:20:25;7.78;;;3.10;;
70929;SDS011;58588;48.102;19.682;2024-02-23T06:23:27;7.75;;;2.83;;
70929;SDS011;58588;48.102;19.682;2024-02-23T06:26:29;7.55;;;2.78;;
70929;SDS011;58588;48.102;19.682;2024-02-23T06:29:33;8.40;;;2.80;;
70929;SDS011;58588;48.102;19.682;2024-02-23T06:32:35;6.55;;;2.55;;
70929;SDS011;58588;48.102;19.682;2024-02-23T06:35:37;8.02;;;2.90;;
70929;SDS011;58588;48.102;19.682;2024-02-23T06:38:39;7.03;;;2.47;;
70929;SDS011;58588;48.102;19.682;2024-02-23T06:41:41;6.60;;;2.20;;
70929;SDS011;58588;48.102;19.682;2024-02-23T06:44:44;6.13;;;2.00;;
70929;SDS011;58588;48.102;19.682;2024-02-23T06:47:46;5.90;;;1.80;;
70929;SDS011;58588;48.102;19.682;2024-02-23T06:50:48;7.30;;;1.92;;
70929;SDS011;58588;48.102;19.682;2024-02-23T06:53:50;6.47;;;1.88;;
70929;SDS011;58588;48.102;19.682;2024-02-23T06:56:52;5.10;;;1.65;;
70929;SDS011;58588;48.102;19.682;2024-02-23T06:59:55;5.20;;;1.60;;
70929;SDS011;58588;48.102;19.682;2024-02-23T07:02:58;5.65;;;1.52;;
70929;SDS011;58588;48.102;19.682;2024-02-23T07:06:04;5.75;;;1.70;;
70929;SDS011;58588;48.102;19.682;2024-02-23T07:09:09;5.20;;;1.52;;
70929;SDS011;58588;48.102;19.682;2024-02-23T07:12:11;5.07;;;1.48;;
70929;SDS011;58588;48.102;19.682;2024-02-23T07:15:15;5.23;;;1.60;;
70929;SDS011;58588;48.102;19.682;2024-02-23T07:18:17;5.97;;;1.50;;
70929;SDS011;58588;48.102;19.682;2024-02-23T07:21:19;5.10;;;1.42;;
70929;SDS011;58588;48.102;19.682;2024-02-23T07:24:21;5.63;;;1.73;;
70929;SDS011;58588;48.102;19.682;2024-02-23T07:27:23;5.55;;;1.55;;
70929;SDS011;58588;48.102;19.682;2024-02-23T07:30:26;5.23;;;1.67;;
70929;SDS011;58588;48.102;19.682;2024-02-23T07:33:28;5.15;;;1.60;;
70929;SDS011;58588;48.102;19.682;2024-02-23T07:36:30;6.95;;;1.90;;
70929;SDS011;58588;48.102;19.682;2024-02-23T07:39:32;5.75;;;1.88;;
70929;SDS011;58588;48.102;19.682;2024-02-23T07:42:34;5.57;;;1.42;;
70929;SDS011;58588;48.102;19.682;2024-02-23T07:45:37;5.20;;;1.80;;
70929;SDS011;58588;48.102;19.682;2024-02-23T07:48:39;5.25;;;1.70;;
70929;SDS011;58588;48.102;19.682;2024-02-23T07:51:41;5.80;;;1.90;;
70929;SDS011;58588;48.102;19.682;2024-02-23T07:54:43;6.28;;;1.83;;
70929;SDS011;58588;48.102;19.682;2024-02-23T07:57:45;6.65;;;1.90;;
70929;SDS011;58588;48.102;19.682;2024-02-23T08:00:48;5.80;;;2.07;;
70929;SDS011;58588;48.102;19.682;2024-02-23T08:03:50;7.15;;;2.00;;
70929;SDS011;58588;48.102;19.682;2024-02-23T08:06:52;6.18;;;2.28;;
70929;SDS011;58588;48.102;19.682;2024-02-23T08:09:54;5.80;;;1.70;;
70929;SDS011;58588;48.102;19.682;2024-02-23T08:12:55;5.20;;;1.50;;
70929;SDS011;58588;48.102;19.682;2024-02-23T08:15:59;4.90;;;1.60;;
70929;SDS011;58588;48.102;19.682;2024-02-23T08:19:01;5.20;;;1.50;;
70929;SDS011;58588;48.102;19.682;2024-02-23T08:22:03;5.03;;;1.70;;
70929;SDS011;58588;48.102;19.682;2024-02-23T08:25:05;4.60;;;1.35;;
70929;SDS011;58588;48.102;19.682;2024-02-23T08:28:07;5.00;;;1.50;;
70929;SDS011;58588;48.102;19.682;2024-02-23T08:31:11;5.23;;;1.47;;
70929;SDS011;58588;48.102;19.682;2024-02-23T08:34:12;5.22;;;1.60;;
70929;SDS011;58588;48.102;19.682;2024-02-23T08:37:14;5.65;;;1.50;;
70929;SDS011;58588;48.102;19.682;2024-02-23T08:40:16;5.78;;;1.58;;
70929;SDS011;58588;48.102;19.682;2024-02-23T08:43:18;5.82;;;1.85;;
70929;SDS011;58588;48.102;19.682;2024-02-23T08:46:21;5.03;;;1.60;;
70929;SDS011;58588;48.102;19.682;2024-02-23T08:49:23;7.22;;;1.90;;
70929;SDS011;58588;48.102;19.682;2024-02-23T08:52:25;5.07;;;1.67;;
70929;SDS011;58588;48.102;19.682;2024-02-23T08:55:27;5.50;;;1.63;;
70929;SDS011;58588;48.102;19.682;2024-02-23T08:58:30;5.53;;;1.45;;
70929;SDS011;58588;48.102;19.682;2024-02-23T09:01:33;4.73;;;1.37;;
70929;SDS011;58588;48.102;19.682;2024-02-23T09:04:35;6.45;;;1.67;;
70929;SDS011;58588;48.102;19.682;2024-02-23T09:07:37;5.68;;;1.90;;
70929;SDS011;58588;48.102;19.682;2024-02-23T09:10:39;6.25;;;1.77;;
70929;SDS011;58588;48.102;19.682;2024-02-23T09:13:41;5.88;;;1.92;;
70929;SDS011;58588;48.102;19.682;2024-02-23T09:16:44;5.30;;;1.90;;
70929;SDS011;58588;48.102;19.682;2024-02-23T09:19:47;6.47;;;2.00;;
70929;SDS011;58588;48.102;19.682;2024-02-23T09:22:49;6.03;;;1.75;;
70929;SDS011;58588;48.102;19.682;2024-02-23T09:25:51;6.25;;;1.90;;
70929;SDS011;58588;48.102;19.682;2024-02-23T09:28:53;5.53;;;1.90;;
70929;SDS011;58588;48.102;19.682;2024-02-23T09:31:56;5.00;;;1.50;;
70929;SDS011;58588;48.102;19.682;2024-02-23T09:34:58;5.38;;;1.60;;
70929;SDS011;58588;48.102;19.682;2024-02-23T09:38:00;5.57;;;1.63;;
70929;SDS011;58588;48.102;19.682;2024-02-23T09:41:03;6.10;;;1.70;;
70929;SDS011;58588;48.102;19.682;2024-02-23T09:44:05;5.25;;;1.50;;
70929;SDS011;58588;48.102;19.682;2024-02-23T09:47:09;5.37;;;1.40;;
70929;SDS011;58588;48.102;19.682;2024-02-23T09:50:11;4.80;;;1.38;;
70929;SDS011;58588;48.102;19.682;2024-02-23T09:53:14;5.93;;;1.15;;
70929;SDS011;58588;48.102;19.682;2024-02-23T09:56:18;5.50;;;1.00;;
70929;SDS011;58588;48.102;19.682;2024-02-23T09:59:22;4.90;;;1.50;;
70929;SDS011;58588;48.102;19.682;2024-02-23T10:02:29;5.00;;;1.30;;
70929;SDS011;58588;48.102;19.682;2024-02-23T10:05:31;4.85;;;1.15;;
70929;SDS011;58588;48.102;19.682;2024-02-23T10:08:33;4.50;;;1.08;;
70929;SDS011;58588;48.102;19.682;2024-02-23T10:11:36;4.63;;;1.00;;
70929;SDS011;58588;48.102;19.682;2024-02-23T10:14:37;4.68;;;1.15;;
70929;SDS011;58588;48.102;19.682;2024-02-23T10:17:43;3.50;;;0.80;;
70929;SDS011;58588;48.102;19.682;2024-02-23T10:20:45;4.25;;;0.82;;
70929;SDS011;58588;48.102;19.682;2024-02-23T10:23:47;4.35;;;0.90;;
70929;SDS011;58588;48.102;19.682;2024-02-23T10:26:52;4.15;;;0.82;;
70929;SDS011;58588;48.102;19.682;2024-02-23T10:29:53;4.15;;;0.80;;
70929;SDS011;58588;48.102;19.682;2024-02-23T10:32:57;4.17;;;0.90;;
70929;SDS011;58588;48.102;19.682;2024-02-23T10:35:59;4.40;;;1.02;;
70929;SDS011;58588;48.102;19.682;2024-02-23T10:39:02;4.97;;;1.02;;
70929;SDS011;58588;48.102;19.682;2024-02-23T10:42:05;4.53;;;1.00;;
70929;SDS011;58588;48.102;19.682;2024-02-23T10:45:10;4.93;;;0.80;;
70929;SDS011;58588;48.102;19.682;2024-02-23T10:48:13;3.43;;;0.70;;
70929;SDS011;58588;48.102;19.682;2024-02-23T10:51:18;3.17;;;0.60;;
70929;SDS011;58588;48.102;19.682;2024-02-23T10:54:20;4.55;;;0.80;;
70929;SDS011;58588;48.102;19.682;2024-02-23T10:57:23;4.57;;;0.70;;
70929;SDS011;58588;48.102;19.682;2024-02-23T11:00:26;3.30;;;0.55;;
70929;SDS011;58588;48.102;19.682;2024-02-23T11:03:29;3.03;;;0.60;;
70929;SDS011;58588;48.102;19.682;2024-02-23T11:06:33;5.53;;;0.90;;
70929;SDS011;58588;48.102;19.682;2024-02-23T11:09:35;3.97;;;0.82;;
70929;SDS011;58588;48.102;19.682;2024-02-23T11:12:38;4.60;;;0.80;;
70929;SDS011;58588;48.102;19.682;2024-02-23T11:15:41;4.22;;;0.80;;
70929;SDS011;58588;48.102;19.682;2024-02-23T11:18:45;2.93;;;0.57;;
70929;SDS011;58588;48.102;19.682;2024-02-23T11:21:51;3.58;;;0.65;;
70929;SDS011;58588;48.102;19.682;2024-02-23T11:24:54;3.03;;;0.60;;
70929;SDS011;58588;48.102;19.682;2024-02-23T11:28:00;5.38;;;0.73;;
70929;SDS011;58588;48.102;19.682;2024-02-23T11:31:02;3.95;;;0.50;;
70929;SDS011;58588;48.102;19.682;2024-02-23T11:34:14;4.27;;;0.80;;
70929;SDS011;58588;48.102;19.682;2024-02-23T11:37:27;3.10;;;0.57;;
70929;SDS011;58588;48.102;19.682;2024-02-23T11:40:30;2.53;;;0.45;;
70929;SDS011;58588;48.102;19.682;2024-02-23T11:43:33;3.22;;;0.45;;
70929;SDS011;58588;48.102;19.682;2024-02-23T11:46:36;3.58;;;0.60;;
70929;SDS011;58588;48.102;19.682;2024-02-23T11:49:39;2.10;;;0.23;;
70929;SDS011;58588;48.102;19.682;2024-02-23T11:52:41;2.97;;;0.40;;
70929;SDS011;58588;48.102;19.682;2024-02-23T11:55:43;2.88;;;0.35;;
70929;SDS011;58588;48.102;19.682;2024-02-23T11:58:46;2.42;;;0.38;;
70929;SDS011;58588;48.102;19.682;2024-02-23T12:01:48;3.42;;;0.45;;
70929;SDS011;58588;48.102;19.682;2024-02-23T12:04:51;2.87;;;0.50;;
70929;SDS011;58588;48.102;19.682;2024-02-23T12:07:53;3.42;;;0.80;;
70929;SDS011;58588;48.102;19.682;2024-02-23T12:10:56;4.45;;;0.50;;
70929;SDS011;58588;48.102;19.682;2024-02-23T12:14:00;2.88;;;0.50;;
70929;SDS011;58588;48.102;19.682;2024-02-23T12:17:02;3.85;;;0.60;;
70929;SDS011;58588;48.102;19.682;2024-02-23T12:20:08;3.07;;;0.47;;
70929;SDS011;58588;48.102;19.682;2024-02-23T12:23:11;3.08;;;0.50;;
70929;SDS011;58588;48.102;19.682;2024-02-23T12:26:14;3.42;;;0.65;;
70929;SDS011;58588;48.102;19.682;2024-02-23T12:29:17;3.45;;;0.57;;
70929;SDS011;58588;48.102;19.682;2024-02-23T12:32:19;4.88;;;0.80;;
70929;SDS011;58588;48.102;19.682;2024-02-23T12:35:23;3.33;;;0.70;;
70929;SDS011;58588;48.102;19.682;2024-02-23T12:38:25;3.17;;;0.60;;
70929;SDS011;58588;48.102;19.682;2024-02-23T12:41:27;2.88;;;0.50;;
70929;SDS011;58588;48.102;19.682;2024-02-23T12:44:29;5.15;;;0.70;;
70929;SDS011;58588;48.102;19.682;2024-02-23T12:47:31;4.78;;;0.88;;
70929;SDS011;58588;48.102;19.682;2024-02-23T12:50:34;4.07;;;0.80;;
70929;SDS011;58588;48.102;19.682;2024-02-23T12:53:37;4.07;;;0.98;;
70929;SDS011;58588;48.102;19.682;2024-02-23T12:56:39;3.90;;;0.98;;
70929;SDS011;58588;48.102;19.682;2024-02-23T12:59:41;4.90;;;1.10;;
70929;SDS011;58588;48.102;19.682;2024-02-23T13:02:43;4.20;;;1.02;;
70929;SDS011;58588;48.102;19.682;2024-02-23T13:05:46;4.60;;;1.00;;
70929;SDS011;58588;48.102;19.682;2024-02-23T13:08:48;5.45;;;1.00;;
70929;SDS011;58588;48.102;19.682;2024-02-23T13:11:50;4.82;;;1.10;;
70929;SDS011;58588;48.102;19.682;2024-02-23T13:14:52;3.97;;;0.90;;
70929;SDS011;58588;48.102;19.682;2024-02-23T13:17:54;4.20;;;1.00;;
70929;SDS011;58588;48.102;19.682;2024-02-23T13:20:58;4.00;;;0.70;;
70929;SDS011;58588;48.102;19.682;2024-02-23T13:24:00;3.50;;;0.70;;
70929;SDS011;58588;48.102;19.682;2024-02-23T13:27:02;3.08;;;0.50;;
70929;SDS011;58588;48.102;19.682;2024-02-23T13:30:05;3.50;;;0.77;;
70929;SDS011;58588;48.102;19.682;2024-02-23T13:33:07;2.90;;;0.50;;
70929;SDS011;58588;48.102;19.682;2024-02-23T13:36:12;3.37;;;0.70;;
70929;SDS011;58588;48.102;19.682;2024-02-23T13:39:14;4.45;;;0.70;;
70929;SDS011;58588;48.102;19.682;2024-02-23T13:42:16;4.32;;;0.93;;
70929;SDS011;58588;48.102;19.682;2024-02-23T13:45:18;4.70;;;1.10;;
70929;SDS011;58588;48.102;19.682;2024-02-23T13:48:20;4.10;;;0.93;;
70929;SDS011;58588;48.102;19.682;2024-02-23T13:51:24;4.87;;;1.10;;
70929;SDS011;58588;48.102;19.682;2024-02-23T13:54:25;5.15;;;1.55;;
70929;SDS011;58588;48.102;19.682;2024-02-23T13:57:27;5.60;;;1.67;;
70929;SDS011;58588;48.102;19.682;2024-02-23T14:00:29;5.95;;;1.80;;
70929;SDS011;58588;48.102;19.682;2024-02-23T14:03:31;6.38;;;1.85;;
70929;SDS011;58588;48.102;19.682;2024-02-23T14:06:35;6.93;;;2.40;;
70929;SDS011;58588;48.102;19.682;2024-02-23T14:09:36;9.73;;;3.97;;
70929;SDS011;58588;48.102;19.682;2024-02-23T14:12:38;6.88;;;3.10;;
70929;SDS011;58588;48.102;19.682;2024-02-23T14:15:40;10.27;;;4.50;;
70929;SDS011;58588;48.102;19.682;2024-02-23T14:18:42;8.70;;;3.60;;
70929;SDS011;58588;48.102;19.682;2024-02-23T14:21:46;11.17;;;4.27;;
70929;SDS011;58588;48.102;19.682;2024-02-23T14:24:49;11.73;;;5.18;;
70929;SDS011;58588;48.102;19.682;2024-02-23T14:27:51;9.32;;;4.57;;
70929;SDS011;58588;48.102;19.682;2024-02-23T14:30:55;11.85;;;5.78;;
70929;SDS011;58588;48.102;19.682;2024-02-23T14:33:57;10.00;;;4.53;;
70929;SDS011;58588;48.102;19.682;2024-02-23T14:37:00;14.47;;;6.17;;
70929;SDS011;58588;48.102;19.682;2024-02-23T14:40:02;25.30;;;12.32;;
70929;SDS011;58588;48.102;19.682;2024-02-23T14:43:05;23.17;;;11.18;;
70929;SDS011;58588;48.102;19.682;2024-02-23T14:46:07;17.50;;;8.32;;
70929;SDS011;58588;48.102;19.682;2024-02-23T14:49:09;31.50;;;14.45;;
70929;SDS011;58588;48.102;19.682;2024-02-23T14:52:14;30.63;;;16.00;;
70929;SDS011;58588;48.102;19.682;2024-02-23T14:55:16;25.13;;;13.18;;
70929;SDS011;58588;48.102;19.682;2024-02-23T14:58:18;14.45;;;6.65;;
70929;SDS011;58588;48.102;19.682;2024-02-23T15:01:20;14.93;;;8.60;;
70929;SDS011;58588;48.102;19.682;2024-02-23T15:04:22;17.77;;;9.48;;
70929;SDS011;58588;48.102;19.682;2024-02-23T15:07:26;11.40;;;5.43;;
70929;SDS011;58588;48.102;19.682;2024-02-23T15:10:28;12.85;;;6.03;;
70929;SDS011;58588;48.102;19.682;2024-02-23T15:13:30;12.27;;;6.53;;
70929;SDS011;58588;48.102;19.682;2024-02-23T15:16:32;10.05;;;5.10;;
70929;SDS011;58588;48.102;19.682;2024-02-23T15:19:34;9.27;;;4.05;;
70929;SDS011;58588;48.102;19.682;2024-02-23T15:22:37;9.80;;;4.23;;
70929;SDS011;58588;48.102;19.682;2024-02-23T15:25:42;11.43;;;4.90;;
70929;SDS011;58588;48.102;19.682;2024-02-23T15:28:44;9.95;;;4.63;;
70929;SDS011;58588;48.102;19.682;2024-02-23T15:31:46;11.07;;;4.55;;
70929;SDS011;58588;48.102;19.682;2024-02-23T15:34:48;11.00;;;5.63;;
70929;SDS011;58588;48.102;19.682;2024-02-23T15:37:51;13.13;;;6.60;;
70929;SDS011;58588;48.102;19.682;2024-02-23T15:40:53;12.20;;;5.90;;
70929;SDS011;58588;48.102;19.682;2024-02-23T15:43:55;19.70;;;10.25;;
70929;SDS011;58588;48.102;19.682;2024-02-23T15:46:57;19.55;;;10.50;;
70929;SDS011;58588;48.102;19.682;2024-02-23T15:49:59;12.50;;;6.60;;
70929;SDS011;58588;48.102;19.682;2024-02-23T15:53:03;8.90;;;4.27;;
70929;SDS011;58588;48.102;19.682;2024-02-23T15:56:05;8.65;;;4.00;;
70929;SDS011;58588;48.102;19.682;2024-02-23T15:59:07;7.60;;;3.55;;
70929;SDS011;58588;48.102;19.682;2024-02-23T16:02:09;8.50;;;3.40;;
70929;SDS011;58588;48.102;19.682;2024-02-23T16:05:11;8.40;;;3.30;;
70929;SDS011;58588;48.102;19.682;2024-02-23T16:08:15;8.83;;;3.33;;
70929;SDS011;58588;48.102;19.682;2024-02-23T16:11:17;9.38;;;4.00;;
70929;SDS011;58588;48.102;19.682;2024-02-23T16:14:19;8.40;;;4.03;;
70929;SDS011;58588;48.102;19.682;2024-02-23T16:17:20;10.20;;;4.13;;
70929;SDS011;58588;48.102;19.682;2024-02-23T16:20:23;17.77;;;4.07;;
70929;SDS011;58588;48.102;19.682;2024-02-23T16:23:27;11.17;;;4.20;;
70929;SDS011;58588;48.102;19.682;2024-02-23T16:26:29;16.75;;;4.40;;
70929;SDS011;58588;48.102;19.682;2024-02-23T16:29:34;11.05;;;5.00;;
70929;SDS011;58588;48.102;19.682;2024-02-23T16:32:37;12.65;;;6.07;;
70929;SDS011;58588;48.102;19.682;2024-02-23T16:35:39;10.48;;;5.22;;
70929;SDS011;58588;48.102;19.682;2024-02-23T16:38:42;10.13;;;5.00;;
70929;SDS011;58588;48.102;19.682;2024-02-23T16:41:44;15.02;;;5.75;;
70929;SDS011;58588;48.102;19.682;2024-02-23T16:44:46;16.02;;;6.45;;
70929;SDS011;58588;48.102;19.682;2024-02-23T16:47:48;122.32;;;67.35;;
70929;SDS011;58588;48.102;19.682;2024-02-23T16:50:50;175.82;;;87.30;;
70929;SDS011;58588;48.102;19.682;2024-02-23T16:53:53;311.23;;;175.40;;
70929;SDS011;58588;48.102;19.682;2024-02-23T16:56:55;132.55;;;69.60;;
70929;SDS011;58588;48.102;19.682;2024-02-23T16:59:58;158.82;;;90.28;;
70929;SDS011;58588;48.102;19.682;2024-02-23T17:03:00;73.15;;;48.13;;
70929;SDS011;58588;48.102;19.682;2024-02-23T17:06:02;27.30;;;17.65;;
70929;SDS011;58588;48.102;19.682;2024-02-23T17:09:06;23.07;;;14.53;;
70929;SDS011;58588;48.102;19.682;2024-02-23T17:12:10;29.13;;;20.52;;
70929;SDS011;58588;48.102;19.682;2024-02-23T17:15:11;23.85;;;16.80;;
70929;SDS011;58588;48.102;19.682;2024-02-23T17:18:13;19.58;;;11.70;;
70929;SDS011;58588;48.102;19.682;2024-02-23T17:21:15;17.77;;;9.75;;
70929;SDS011;58588;48.102;19.682;2024-02-23T17:24:19;19.73;;;10.23;;
70929;SDS011;58588;48.102;19.682;2024-02-23T17:27:21;24.00;;;13.93;;
70929;SDS011;58588;48.102;19.682;2024-02-23T17:30:24;21.10;;;11.52;;
70929;SDS011;58588;48.102;19.682;2024-02-23T17:33:28;19.27;;;9.77;;
70929;SDS011;58588;48.102;19.682;2024-02-23T17:36:33;19.60;;;11.25;;
70929;SDS011;58588;48.102;19.682;2024-02-23T17:39:36;19.63;;;10.47;;
70929;SDS011;58588;48.102;19.682;2024-02-23T17:42:39;18.85;;;10.15;;
70929;SDS011;58588;48.102;19.682;2024-02-23T17:45:41;23.25;;;12.30;;
70929;SDS011;58588;48.102;19.682;2024-02-23T17:48:43;21.10;;;12.20;;
70929;SDS011;58588;48.102;19.682;2024-02-23T17:51:45;19.08;;;10.60;;
70929;SDS011;58588;48.102;19.682;2024-02-23T17:54:49;18.60;;;10.37;;
70929;SDS011;58588;48.102;19.682;2024-02-23T17:57:51;20.02;;;11.20;;
70929;SDS011;58588;48.102;19.682;2024-02-23T18:00:53;23.90;;;12.88;;
70929;SDS011;58588;48.102;19.682;2024-02-23T18:03:55;21.02;;;11.20;;